METAR AND TAF INFORMATION
METAR FOR KSUN
KSUN 211647Z 31006KT 10SM CLR 23/02 A3007
KSUN 211547Z 31006KT 10SM CLR 19/00 A3008
KSUN 211447Z 31010KT 10SM CLR 15/01 A3009
KSUN 211720Z 2118/2224 13010KT P6SM SCT120
FM212100 23010G18KT P6SM SCT120
FM220300 32010KT P6SM SKC
FM221800 14010KT P6SM FEW120

 AIRPORT MAP

 RUNWAY INFORMATION
Runway 13 Runway length 6952 ft Runway width 100 ft
Runway elevation 5311 ft Runway displaced threshold 1501 ft Runway heading 145
Runway 31 Runway length 6952 ft Runway width 100 ft
Runway elevation 5269 ft Runway displaced threshold 0 ft Runway heading 325

 AIRPORT FREQUENCIES
Type ATIS Name ATIS Frequency 128.225 MHZ
Type AWOS Name AWOS Frequency 128.225 MHZ
Type CNTR Name SALT LAKE Frequency 118.05 MHZ
Type CTAF Name CTAF Frequency 125.6 MHZ
Type GND Name GND Frequency 121.7 MHZ
Type RDO Name BOISE RDO Frequency 122.4 MHZ
Type TWR Name HAILEY TWR Frequency 125.6 MHZ
Type UNIC Name UNICOM Frequency 122.95 MHZ

 AIRPORT NEAR NAVIGATION AIDS

-